Time;durP1;ratioP1;P1;durP2;ratioP2;P2;SDS_P1;SDS_P2;PMS_P1;PMS_P2;Temp;Humidity;BMP_temperature;BMP_pressure;BME280_temperature;BME280_humidity;BME280_pressure;Samples;Min_cycle;Max_cycle;Signal;HPM_P1;HPM_P2
2021/11/10 00:00:15;;;;;;;2.58;2.38;;;;;;;0.96;99.32;99660.31;4995193;28;20026;-82
2021/11/10 00:02:41;;;;;;;1.70;1.65;;;;;;;0.97;99.56;99658.69;4995215;28;20038;-82
2021/11/10 00:05:07;;;;;;;1.33;1.33;;;;;;;0.89;99.66;99647.31;4995334;28;20042;-82
2021/11/10 00:07:33;;;;;;;1.77;0.85;;;;;;;0.82;99.64;99645.38;4995182;28;20049;-82
2021/11/10 00:09:58;;;;;;;2.70;2.50;;;;;;;0.83;99.71;99647.13;4995221;28;20026;-82
2021/11/10 00:12:24;;;;;;;1.95;1.83;;;;;;;0.95;99.44;99642.44;4994651;28;20034;-81
2021/11/10 00:14:49;;;;;;;1.60;1.55;;;;;;;0.95;99.87;99642.44;4995100;28;20022;-81
2021/11/10 00:17:15;;;;;;;1.70;1.60;;;;;;;0.93;100.00;99644.06;5002774;28;20112;-82
2021/11/10 00:19:40;;;;;;;2.30;1.98;;;;;;;0.94;100.00;99650.91;5000392;28;20064;-81
2021/11/10 00:22:06;;;;;;;2.20;1.55;;;;;;;0.96;100.00;99659.47;4996875;28;20027;-81
2021/11/10 00:24:31;;;;;;;2.55;2.33;;;;;;;0.96;100.00;99667.13;4994919;28;20034;-82
2021/11/10 00:26:56;;;;;;;1.67;1.42;;;;;;;0.94;100.00;99676.41;4994583;28;20072;-82
2021/11/10 00:29:22;;;;;;;1.73;1.63;;;;;;;0.88;100.00;99682.19;4994740;28;20034;-82
2021/11/10 00:31:47;;;;;;;1.55;1.55;;;;;;;0.83;100.00;99675.19;4994586;28;20018;-82
2021/11/10 00:34:12;;;;;;;2.15;1.77;;;;;;;0.84;100.00;99679.47;4994461;28;20034;-82
2021/11/10 00:36:38;;;;;;;1.90;1.80;;;;;;;0.97;100.00;99681.63;4994702;28;20441;-82
2021/11/10 00:39:04;;;;;;;1.55;1.50;;;;;;;1.05;100.00;99690.41;4994501;28;20214;-81
2021/11/10 00:41:29;;;;;;;1.00;1.00;;;;;;;1.09;99.63;99686.28;4994265;28;20105;-81
2021/11/10 00:43:59;;;;;;;1.38;1.38;;;;;;;1.13;99.93;99686.44;4994383;28;20622;-81
2021/11/10 00:46:25;;;;;;;1.13;1.13;;;;;;;0.97;99.28;99679.09;4998114;28;20032;-81
2021/11/10 00:48:50;;;;;;;1.20;1.20;;;;;;;1.01;99.34;99679.22;5005589;28;20474;-82
2021/11/10 00:51:16;;;;;;;3.38;1.73;;;;;;;1.02;98.88;99696.28;5013867;28;20026;-82
2021/11/10 00:53:41;;;;;;;2.65;2.45;;;;;;;0.66;98.64;99695.84;5014121;28;20025;-82
2021/11/10 00:56:06;;;;;;;1.95;1.85;;;;;;;0.57;99.50;99685.28;4966131;28;20551;-82
2021/11/10 00:58:32;;;;;;;1.25;1.25;;;;;;;0.58;100.00;99681.97;5013894;28;20030;-82
2021/11/10 05:16:58;;;;;;;1.55;1.20;;;;;;;-0.57;100.00;99574.88;5293138;23;20054;-82
2021/11/10 05:19:23;;;;;;;0.98;0.98;;;;;;;-0.63;100.00;99577.16;4993761;28;20026;-82
2021/11/10 05:21:50;;;;;;;1.55;1.45;;;;;;;-0.55;100.00;99580.88;4993586;28;20031;-82
2021/11/10 05:24:15;;;;;;;1.75;1.65;;;;;;;-0.44;100.00;99577.06;4993761;28;20154;-82
2021/11/10 05:26:42;;;;;;;1.27;1.27;;;;;;;-0.61;100.00;99580.66;4993734;28;20104;-82
2021/11/10 05:29:09;;;;;;;1.85;1.75;;;;;;;-0.66;100.00;99582.13;4994498;28;20029;-75
2021/11/10 05:31:34;;;;;;;1.08;1.08;;;;;;;-0.63;100.00;99594.97;4993484;28;20053;-75
2021/11/10 05:34:00;;;;;;;1.33;1.33;;;;;;;-0.62;100.00;99589.09;4993739;28;20058;-74
2021/11/10 05:36:25;;;;;;;4.03;1.48;;;;;;;-0.72;100.00;99587.00;4993505;28;20034;-75
2021/11/10 05:38:51;;;;;;;1.38;1.38;;;;;;;-0.71;100.00;99594.69;4993560;28;20038;-75
2021/11/10 05:41:17;;;;;;;0.90;0.90;;;;;;;-0.68;100.00;99599.00;4907253;28;20432;-75
2021/11/10 05:43:43;;;;;;;1.55;1.55;;;;;;;-0.58;100.00;99606.19;5022022;28;20034;-74
2021/11/10 05:46:08;;;;;;;1.80;1.50;;;;;;;-0.73;100.00;99611.53;5012787;28;20482;-74
2021/11/10 05:48:34;;;;;;;1.35;1.35;;;;;;;-0.67;100.00;99628.75;5012948;28;20571;-74
2021/11/10 05:51:01;;;;;;;2.08;1.98;;;;;;;-0.82;100.00;99627.31;5012434;28;20067;-76
2021/11/10 05:53:26;;;;;;;1.33;1.33;;;;;;;-0.84;100.00;99612.78;5012713;28;20029;-74
2021/11/10 05:55:53;;;;;;;2.28;2.17;;;;;;;-0.66;100.00;99607.59;5012846;28;20104;-74
2021/11/10 05:58:19;;;;;;;1.00;1.00;;;;;;;-0.70;100.00;99620.97;5012715;28;20021;-74
2021/11/10 06:00:45;;;;;;;1.27;1.27;;;;;;;-0.73;100.00;99595.41;5012722;28;20426;-74
2021/11/10 06:03:11;;;;;;;4.65;1.83;;;;;;;-0.26;100.00;99590.50;5012506;28;20029;-74
2021/11/10 06:05:36;;;;;;;1.92;1.83;;;;;;;-0.28;100.00;99589.59;5012623;28;20026;-74
2021/11/10 06:08:01;;;;;;;1.10;1.10;;;;;;;-0.54;100.00;99592.78;5012505;28;20069;-74
2021/11/10 06:10:27;;;;;;;1.85;1.75;;;;;;;-0.84;100.00;99595.84;5012636;28;20022;-74
2021/11/10 06:12:52;;;;;;;3.25;2.95;;;;;;;-0.90;100.00;99598.16;5012365;28;20079;-74
2021/11/10 06:15:18;;;;;;;3.00;1.70;;;;;;;-0.99;100.00;99592.69;5012332;28;20022;-74
2021/11/10 06:17:43;;;;;;;7.57;2.90;;;;;;;-0.98;100.00;99588.47;5012332;28;20071;-74
2021/11/10 06:20:10;;;;;;;2.38;2.22;;;;;;;-0.97;100.00;99596.16;5012479;28;20160;-73
2021/11/10 06:22:36;;;;;;;2.13;2.03;;;;;;;-1.05;100.00;99593.31;5012558;28;20394;-73
2021/11/10 06:25:04;;;;;;;1.48;1.40;;;;;;;-1.06;100.00;99600.88;5012507;28;20034;-73
2021/11/10 06:27:30;;;;;;;0.95;0.93;;;;;;;-0.99;100.00;99607.94;5012144;28;20063;-73
2021/11/10 06:29:55;;;;;;;2.08;1.98;;;;;;;-0.95;100.00;99620.00;5012404;28;20477;-74
2021/11/10 06:32:21;;;;;;;1.90;1.38;;;;;;;-0.98;100.00;99613.91;5012233;28;20042;-74
2021/11/10 06:34:46;;;;;;;1.42;1.42;;;;;;;-0.93;100.00;99618.38;5012279;28;20018;-74
2021/11/10 06:37:12;;;;;;;0.95;0.95;;;;;;;-0.92;100.00;99603.97;5012112;28;20022;-73
2021/11/10 06:39:37;;;;;;;2.92;2.67;;;;;;;-0.80;100.00;99612.97;5012181;28;20387;-73
2021/11/10 06:42:04;;;;;;;2.50;1.88;;;;;;;-0.70;100.00;99615.91;5011955;28;20065;-73
2021/11/10 06:44:29;;;;;;;1.33;1.33;;;;;;;-0.59;100.00;99615.50;5012150;28;20030;-74
2021/11/10 06:46:59;;;;;;;1.95;1.73;;;;;;;-0.59;100.00;99612.09;5012016;28;20028;-74
2021/11/10 06:49:24;;;;;;;1.95;1.85;;;;;;;-0.54;100.00;99618.22;5011960;28;20444;-74
2021/11/10 06:51:50;;;;;;;0.80;0.80;;;;;;;-0.56;100.00;99609.69;5011910;28;20026;-74
2021/11/10 06:54:15;;;;;;;1.02;1.02;;;;;;;-0.51;100.00;99608.19;5012093;28;20034;-73
2021/11/10 06:56:41;;;;;;;1.25;1.25;;;;;;;-0.42;100.00;99606.00;5011967;28;20021;-74
2021/11/10 06:59:07;;;;;;;0.80;0.80;;;;;;;-0.33;100.00;99606.38;5012036;28;20030;-74
2021/11/10 07:01:32;;;;;;;2.67;2.47;;;;;;;-0.22;100.00;99608.44;5011868;28;20487;-73
2021/11/10 07:03:57;;;;;;;1.00;1.00;;;;;;;-0.33;100.00;99629.28;5015309;28;20028;-73
2021/11/10 07:06:23;;;;;;;2.03;1.92;;;;;;;-0.18;100.00;99617.94;5015830;28;20155;-74
2021/11/10 07:08:48;;;;;;;1.38;1.38;;;;;;;-0.15;99.45;99620.59;5015998;28;20022;-73
2021/11/10 07:11:13;;;;;;;1.20;1.20;;;;;;;-0.13;98.58;99616.44;5015658;28;20526;-74
2021/11/10 07:13:39;;;;;;;2.88;2.67;;;;;;;-0.18;98.63;99623.03;5015857;28;20052;-74
2021/11/10 07:16:04;;;;;;;1.80;1.70;;;;;;;-0.13;98.37;99630.03;5015469;28;20030;-73
2021/11/10 07:18:29;;;;;;;0.82;0.82;;;;;;;0.05;98.13;99632.44;5016127;28;20037;-73
2021/11/10 07:20:55;;;;;;;1.88;1.77;;;;;;;0.00;98.05;99633.94;5015514;28;20014;-74
2021/11/10 07:23:21;;;;;;;3.70;2.17;;;;;;;-0.01;97.78;99624.53;5015606;28;20041;-74
2021/11/10 07:25:47;;;;;;;1.42;1.42;;;;;;;0.12;97.13;99629.28;5015485;28;20509;-74
2021/11/10 07:28:12;;;;;;;2.13;2.03;;;;;;;0.29;96.12;99623.91;5015619;28;20045;-74
2021/11/10 07:30:38;;;;;;;4.18;2.53;;;;;;;0.34;96.00;99620.75;5015489;28;20104;-74
2021/11/10 07:33:04;;;;;;;4.65;2.33;;;;;;;0.44;95.70;99627.06;5015782;28;20351;-74
2021/11/10 07:35:30;;;;;;;3.85;2.50;;;;;;;0.38;95.62;99621.72;5015202;28;20426;-74
2021/11/10 07:37:55;;;;;;;4.05;1.88;;;;;;;0.47;95.04;99614.41;5015649;28;20041;-74
2021/11/10 07:40:21;;;;;;;1.27;1.10;;;;;;;0.58;94.55;99618.22;5015326;28;20467;-74
2021/11/10 07:42:47;;;;;;;1.95;1.13;;;;;;;0.51;94.70;99623.91;5015029;28;20427;-74
2021/11/10 07:45:19;;;;;;;9.00;2.15;;;;;;;0.73;93.81;99623.84;5015086;28;20092;-73
2021/11/10 07:47:46;;;;;;;2.75;2.25;;;;;;;0.88;93.35;99626.06;5015001;28;20067;-73
2021/11/10 07:50:16;;;;;;;1.85;1.35;;;;;;;1.32;92.74;99623.25;5015089;28;20168;-74
2021/11/10 07:52:42;;;;;;;2.55;2.28;;;;;;;1.45;91.08;99608.38;5015085;28;20401;-74
2021/11/10 07:55:08;;;;;;;2.47;2.28;;;;;;;1.92;88.26;99602.97;5015010;28;20080;-74
2021/11/10 07:57:35;;;;;;;2.20;2.00;;;;;;;2.33;85.09;99605.88;5015027;28;20113;-74
2021/11/10 08:00:05;;;;;;;3.38;2.28;;;;;;;3.03;83.21;99602.63;5014988;28;20022;-74
2021/11/10 08:02:30;;;;;;;;;;;;;;;4.13;77.39;99592.38;5013880;28;20041;-74
2021/11/10 08:04:56;;;;;;;1.77;1.67;;;;;;;4.48;75.58;99607.59;5014863;28;19928;-74
2021/11/10 08:07:21;;;;;;;2.60;2.40;;;;;;;5.05;72.41;99596.69;5014752;28;20022;-74
2021/11/10 08:09:46;;;;;;;1.63;1.45;;;;;;;5.87;68.66;99587.69;5014798;28;20482;-74
2021/11/10 08:12:12;;;;;;;3.53;3.00;;;;;;;6.63;67.33;99594.69;5014610;28;20105;-74
2021/11/10 08:14:37;;;;;;;5.18;1.83;;;;;;;7.34;63.97;99596.22;5014195;28;20390;-74
2021/11/10 08:17:02;;;;;;;2.40;2.05;;;;;;;6.68;65.05;99598.19;5014231;28;20033;-74
2021/11/10 08:19:28;;;;;;;2.42;2.33;;;;;;;6.37;66.44;99590.09;5014567;28;20025;-74
2021/11/10 08:21:53;;;;;;;10.30;2.83;;;;;;;5.82;68.71;99597.06;5014403;28;20056;-74
2021/11/10 08:24:18;;;;;;;3.50;3.20;;;;;;;5.84;68.48;99597.94;5014471;28;20549;-74
2021/11/10 08:26:44;;;;;;;1.38;1.27;;;;;;;5.80;68.81;99596.19;5014461;28;20025;-74
2021/11/10 08:29:09;;;;;;;4.72;2.47;;;;;;;6.15;68.11;99593.25;5014417;28;20549;-74
2021/11/10 08:31:35;;;;;;;3.28;1.75;;;;;;;5.89;69.57;99601.44;5014242;28;20390;-74
2021/11/10 08:34:00;;;;;;;2.05;1.90;;;;;;;4.43;74.37;99620.34;5014246;28;20037;-74
2021/11/10 08:36:26;;;;;;;1.88;1.75;;;;;;;5.03;73.69;99621.47;5014195;28;20487;-74
2021/11/10 08:38:53;;;;;;;2.72;2.53;;;;;;;4.47;75.29;99621.28;5014149;28;20104;-73
2021/11/10 08:41:21;;;;;;;3.50;3.20;;;;;;;4.92;74.21;99623.00;5014010;28;20022;-74
2021/11/10 08:43:47;;;;;;;1.70;1.60;;;;;;;5.07;73.86;99615.56;5014115;28;20026;-74
2021/11/10 08:46:13;;;;;;;4.60;2.75;;;;;;;4.97;75.17;99618.78;5013872;28;20560;-74
2021/11/10 08:48:38;;;;;;;3.55;3.05;;;;;;;5.24;74.35;99623.56;5013859;28;20030;-74
2021/11/10 08:51:04;;;;;;;6.45;1.88;;;;;;;5.09;73.97;99625.03;5014022;28;20049;-74
2021/11/10 08:53:29;;;;;;;2.70;2.50;;;;;;;5.30;74.09;99621.94;5013673;28;20026;-74
2021/11/10 08:55:57;;;;;;;1.60;1.50;;;;;;;5.35;73.80;99622.88;5013918;28;20475;-74
2021/11/10 08:58:23;;;;;;;1.70;1.60;;;;;;;4.69;75.56;99623.44;5013971;28;20052;-74
2021/11/10 09:00:52;;;;;;;2.03;1.92;;;;;;;4.72;76.16;99620.91;5013676;28;20030;-74
2021/11/10 09:03:20;;;;;;;8.45;3.33;;;;;;;4.37;78.05;99615.97;5028912;28;20494;-74
2021/11/10 09:05:46;;;;;;;2.17;1.88;;;;;;;4.49;78.31;99620.47;5013621;28;20025;-74
2021/11/10 09:08:11;;;;;;;1.50;1.48;;;;;;;3.83;80.02;99624.22;5013705;28;20068;-74
2021/11/10 09:10:37;;;;;;;2.88;2.67;;;;;;;3.32;83.09;99632.38;5013557;28;20034;-75
2021/11/10 09:13:04;;;;;;;2.17;2.00;;;;;;;3.51;82.73;99625.16;5013455;28;20028;-76
2021/11/10 09:15:31;;;;;;;1.65;1.55;;;;;;;3.61;82.98;99630.53;5013255;28;20066;-76
2021/11/10 09:17:57;;;;;;;3.25;1.77;;;;;;;3.74;82.61;99630.81;5013603;28;20068;-76
2021/11/10 09:20:25;;;;;;;1.83;1.73;;;;;;;3.34;83.80;99641.00;5013342;28;20483;-76
2021/11/10 09:22:50;;;;;;;2.53;2.30;;;;;;;3.52;84.31;99635.44;5013181;28;20467;-76
2021/11/10 09:25:18;;;;;;;2.30;2.13;;;;;;;3.72;83.18;99630.75;5012474;28;20117;-76
2021/11/10 09:27:44;;;;;;;1.98;1.88;;;;;;;3.94;83.48;99623.59;5013373;28;20394;-76
2021/11/10 09:30:12;;;;;;;2.50;2.30;;;;;;;3.99;82.34;99621.97;5013207;28;20028;-76
2021/11/10 09:32:39;;;;;;;1.45;1.45;;;;;;;3.82;83.44;99617.34;5013355;28;20394;-76
2021/11/10 09:35:07;;;;;;;2.42;2.33;;;;;;;4.05;83.25;99622.97;5013254;28;20022;-76
2021/11/10 09:37:33;;;;;;;2.08;1.95;;;;;;;4.12;81.96;99624.00;5013010;28;20096;-76
2021/11/10 09:40:00;;;;;;;2.58;2.38;;;;;;;3.97;83.24;99633.91;5013212;28;20030;-76
2021/11/10 09:42:26;;;;;;;16.08;3.08;;;;;;;3.97;83.89;99621.97;5012821;28;20033;-76
2021/11/10 09:44:55;;;;;;;1.75;1.73;;;;;;;3.78;83.72;99628.38;5013016;28;20029;-76
2021/11/10 09:47:20;;;;;;;2.90;2.38;;;;;;;4.13;83.16;99635.97;5012913;28;20022;-76
2021/11/10 09:49:51;;;;;;;4.07;2.55;;;;;;;4.06;82.74;99634.97;5012852;28;20391;-76
2021/11/10 09:52:18;;;;;;;3.30;2.97;;;;;;;4.34;82.41;99633.84;5012660;28;20022;-76
2021/11/10 09:54:44;;;;;;;2.70;1.98;;;;;;;4.39;81.16;99621.97;5012951;28;20044;-76
2021/11/10 09:57:09;;;;;;;4.72;4.30;;;;;;;4.62;80.37;99622.44;5013021;28;20022;-76
2021/11/10 09:59:38;;;;;;;2.83;2.55;;;;;;;4.82;81.65;99609.97;5012883;28;20032;-76
2021/11/10 10:02:11;;;;;;;5.90;3.85;;;;;;;5.23;79.85;99603.84;5012641;28;20364;-75
2021/11/10 10:04:39;;;;;;;2.03;1.90;;;;;;;4.95;80.75;99605.06;5012727;28;20042;-76
2021/11/10 10:07:06;;;;;;;2.00;1.90;;;;;;;5.22;81.44;99605.56;5012538;28;20152;-76
2021/11/10 10:09:32;;;;;;;2.15;2.00;;;;;;;5.57;78.46;99607.84;5012680;28;20034;-76
2021/11/10 10:11:58;;;;;;;3.72;2.85;;;;;;;5.40;79.61;99605.84;5012283;28;20022;-76
2021/11/10 10:14:23;;;;;;;3.42;3.20;;;;;;;5.34;78.97;99610.88;5012582;28;20022;-76
2021/11/10 10:16:49;;;;;;;2.85;2.65;;;;;;;5.11;79.44;99601.94;5012180;28;20033;-76
2021/11/10 10:19:14;;;;;;;4.57;2.85;;;;;;;4.96;81.21;99602.53;5012368;28;20021;-76
2021/11/10 10:21:40;;;;;;;4.57;2.67;;;;;;;5.08;80.12;99602.75;5012200;28;20026;-76
2021/11/10 10:24:15;;;;;;;3.75;2.50;;;;;;;5.29;80.24;99599.66;5012386;28;20030;-76
2021/11/10 10:26:41;;;;;;;4.15;3.08;;;;;;;5.61;80.53;99599.34;5012508;28;20026;-77
2021/11/10 10:29:10;;;;;;;6.80;3.08;;;;;;;5.61;77.50;99594.19;5012297;28;20034;-76
2021/11/10 10:31:38;;;;;;;2.10;1.83;;;;;;;5.68;78.89;99588.28;5012224;28;20022;-76
2021/11/10 10:34:13;;;;;;;2.65;2.22;;;;;;;5.56;78.57;99580.38;5012226;28;20483;-76
2021/11/10 10:36:43;;;;;;;2.55;2.35;;;;;;;5.59;78.20;99585.56;5012089;28;20057;-76
2021/11/10 10:39:16;;;;;;;2.45;2.28;;;;;;;5.79;78.25;99589.28;5012297;28;20041;-76
2021/11/10 10:41:45;;;;;;;1.35;1.35;;;;;;;5.99;78.99;99581.03;5012496;28;20411;-76
2021/11/10 10:44:16;;;;;;;5.27;3.57;;;;;;;6.10;77.00;99587.19;5012185;28;20499;-76
2021/11/10 10:46:47;;;;;;;6.03;3.58;;;;;;;6.00;77.12;99577.63;5012041;28;20057;-76
2021/11/10 10:49:18;;;;;;;3.42;2.83;;;;;;;5.88;78.49;99568.84;5011958;28;20017;-76
2021/11/10 10:51:46;;;;;;;2.38;2.17;;;;;;;6.01;77.74;99579.34;5012155;28;20057;-76
2021/11/10 10:54:12;;;;;;;3.30;2.58;;;;;;;6.40;76.56;99573.81;5012068;28;20025;-76
2021/11/10 10:56:42;;;;;;;2.47;2.28;;;;;;;6.44;75.75;99566.16;5012085;28;20388;-76
2021/11/10 10:59:10;;;;;;;5.03;2.25;;;;;;;6.35;75.63;99560.03;5012073;28;20030;-78
2021/11/10 11:01:44;;;;;;;3.28;2.95;;;;;;;6.17;76.28;99558.09;5011674;28;20502;-76
2021/11/10 11:04:12;;;;;;;5.13;3.92;;;;;;;6.38;76.24;99547.19;5011987;28;20084;-76
2021/11/10 11:06:43;;;;;;;3.83;2.85;;;;;;;6.48;76.33;99551.63;5012147;28;20034;-77
2021/11/10 11:09:29;;;;;;;2.72;2.53;;;;;;;6.67;75.90;99537.19;5012112;28;20445;-77
2021/11/10 11:12:29;;;;;;;2.55;2.13;;;;;;;6.78;75.05;99545.06;5011805;28;20057;-77
2021/11/10 11:15:06;;;;;;;1.80;1.70;;;;;;;6.75;75.85;99545.88;5011802;28;20482;-77
2021/11/10 11:17:38;;;;;;;4.88;2.80;;;;;;;6.64;75.31;99558.66;5004478;28;20340;-77
2021/11/10 11:20:07;;;;;;;2.80;2.15;;;;;;;6.64;75.04;99553.50;5011638;28;20033;-76
2021/11/10 11:22:38;;;;;;;5.93;3.63;;;;;;;6.77;73.31;99553.59;5011592;28;20022;-76
2021/11/10 11:25:19;;;;;;;3.67;2.45;;;;;;;7.04;73.08;99556.44;5011525;28;20113;-76
2021/11/10 11:28:02;;;;;;;4.30;2.67;;;;;;;7.06;72.25;99546.13;5006129;28;20026;-76
2021/11/10 11:30:32;;;;;;;4.57;2.63;;;;;;;7.39;70.92;99537.81;5017908;22;20049;-76
2021/11/10 11:33:01;;;;;;;2.65;2.45;;;;;;;7.24;71.57;99545.44;5011467;28;20084;-76
2021/11/10 11:35:29;;;;;;;2.65;2.45;;;;;;;7.10;72.53;99542.75;5011552;28;20033;-76
2021/11/10 11:37:55;;;;;;;4.03;3.38;;;;;;;7.12;72.65;99541.91;5011882;28;20076;-76
2021/11/10 11:40:23;;;;;;;3.92;3.47;;;;;;;7.33;72.50;99535.19;5011649;28;20029;-76
2021/11/10 11:42:50;;;;;;;2.25;1.83;;;;;;;7.55;73.01;99526.75;5011356;28;20022;-76
2021/11/10 11:45:17;;;;;;;7.05;3.28;;;;;;;7.69;73.15;99519.13;5011619;28;20026;-76
2021/11/10 11:47:47;;;;;;;4.70;3.58;;;;;;;8.17;69.46;99520.16;5011215;28;20022;-76
2021/11/10 11:50:12;;;;;;;8.10;4.50;;;;;;;8.84;67.55;99516.91;5014941;28;20049;-76
2021/11/10 11:52:39;;;;;;;7.65;4.38;;;;;;;9.12;66.90;99507.44;5014051;28;20022;-76
2021/11/10 11:55:14;;;;;;;3.65;3.13;;;;;;;9.61;63.38;99513.41;5015014;28;20108;-76
2021/11/10 11:57:45;;;;;;;4.53;4.10;;;;;;;10.68;61.02;99501.75;5014915;28;20562;-76
2021/11/10 12:00:11;;;;;;;3.03;2.50;;;;;;;10.47;60.08;99507.94;5014907;28;20057;-76
2021/11/10 12:02:49;;;;;;;3.55;2.65;;;;;;;11.71;56.56;99499.13;5014500;28;20030;-76
2021/11/10 12:05:24;;;;;;;5.57;3.15;;;;;;;13.06;52.85;99491.22;5015014;28;20022;-76
2021/11/10 12:07:54;;;;;;;8.30;4.05;;;;;;;12.70;53.07;99500.44;5014717;28;20037;-76
2021/11/10 12:10:23;;;;;;;8.18;2.85;;;;;;;11.27;56.01;99513.41;5014761;28;20026;-76
2021/11/10 12:13:08;;;;;;;3.42;2.75;;;;;;;10.63;58.73;99516.47;5014709;28;20053;-76
2021/11/10 12:16:18;;;;;;;7.63;5.53;;;;;;;10.77;59.26;99514.66;5014843;28;20026;-76
2021/11/10 12:18:57;;;;;;;4.05;2.88;;;;;;;10.51;60.90;99502.72;5002585;28;20026;-75
2021/11/10 12:21:33;;;;;;;4.13;2.95;;;;;;;10.71;61.27;99505.19;5014602;28;20052;-75
2021/11/10 12:24:05;;;;;;;6.40;3.70;;;;;;;10.54;60.04;99500.13;5014218;28;20022;-75
2021/11/10 12:26:31;;;;;;;3.47;2.88;;;;;;;10.18;61.24;99508.03;4994999;28;20472;-76
2021/11/10 12:28:58;;;;;;;3.67;2.53;;;;;;;10.13;60.58;99508.06;4994467;28;20049;-75
2021/11/10 12:31:34;;;;;;;4.78;3.30;;;;;;;10.47;59.18;99494.97;4994672;28;20064;-75
2021/11/10 12:34:23;;;;;;;6.15;2.92;;;;;;;10.49;59.67;99495.81;4994772;28;20022;-75
2021/11/10 12:36:58;;;;;;;9.23;3.37;;;;;;;11.02;57.81;99498.06;4994660;28;20109;-75
2021/11/10 12:39:31;;;;;;;5.05;2.55;;;;;;;10.95;58.23;99498.97;4994935;28;20354;-74
2021/11/10 12:42:02;;;;;;;4.63;4.07;;;;;;;11.04;58.07;99500.63;4994380;28;20022;-74
2021/11/10 12:44:32;;;;;;;4.50;2.80;;;;;;;10.63;58.53;99495.72;4994813;28;20037;-74
2021/11/10 12:46:58;;;;;;;7.60;4.63;;;;;;;10.44;59.46;99503.66;5002177;28;20010;-74
2021/11/10 12:49:26;;;;;;;5.80;3.45;;;;;;;10.33;59.42;99505.41;5013789;28;20025;-74
2021/11/10 12:52:10;;;;;;;4.80;3.38;;;;;;;9.98;60.69;99500.38;5013896;28;20471;-74
2021/11/10 12:54:36;;;;;;;4.90;3.10;;;;;;;9.94;61.99;99501.25;5006872;28;20032;-74
2021/11/10 12:57:02;;;;;;;6.68;3.17;;;;;;;9.87;62.88;99505.59;5013909;28;20033;-74
2021/11/10 12:59:33;;;;;;;5.05;3.13;;;;;;;10.21;62.29;99500.28;5013613;28;20030;-74
2021/11/10 13:02:09;;;;;;;4.05;2.33;;;;;;;10.03;62.10;99502.06;5013629;28;20022;-74
2021/11/10 13:04:35;;;;;;;4.40;3.17;;;;;;;10.09;62.37;99505.50;5013700;28;20072;-74
2021/11/10 13:07:09;;;;;;;9.48;3.22;;;;;;;10.03;61.66;99496.91;5013570;28;20108;-74
2021/11/10 13:09:36;;;;;;;4.07;3.30;;;;;;;10.83;60.41;99478.34;5013790;28;20053;-74
2021/11/10 13:12:04;;;;;;;4.38;3.45;;;;;;;10.61;60.52;99484.53;5013380;28;20448;-74
2021/11/10 13:14:29;;;;;;;6.10;3.38;;;;;;;10.30;61.07;99474.38;5013606;28;20033;-74
2021/11/10 13:17:04;;;;;;;3.63;3.33;;;;;;;10.32;61.99;99472.63;5013330;28;20490;-74
2021/11/10 13:19:52;;;;;;;4.07;2.97;;;;;;;10.40;62.27;99468.25;5006212;28;20026;-75
2021/11/10 13:22:29;;;;;;;3.45;2.95;;;;;;;10.33;61.70;99469.16;5013227;28;20053;-75
2021/11/10 13:25:00;;;;;;;3.08;2.45;;;;;;;10.24;62.08;99479.56;5013400;28;20056;-74
2021/11/10 13:27:38;;;;;;;3.22;2.83;;;;;;;10.39;62.35;99473.44;5013246;28;20036;-74
2021/11/10 13:30:07;;;;;;;3.70;3.10;;;;;;;10.33;62.16;99479.50;5013137;28;20034;-74
2021/11/10 13:32:40;;;;;;;5.25;3.00;;;;;;;10.49;61.26;99480.25;5013029;28;20045;-74
2021/11/10 13:35:07;;;;;;;4.25;2.42;;;;;;;10.10;62.98;99486.50;5013355;28;20033;-74
2021/11/10 13:37:49;;;;;;;4.07;2.72;;;;;;;10.34;62.67;99473.44;5013137;28;20149;-74
2021/11/10 13:40:18;;;;;;;6.95;2.97;;;;;;;10.36;62.01;99468.28;5013000;28;20391;-74
2021/11/10 13:42:54;;;;;;;2.13;1.92;;;;;;;10.43;61.77;99472.53;5012754;28;20018;-74
2021/11/10 13:45:23;;;;;;;8.20;3.83;;;;;;;9.75;64.78;99469.38;5012915;28;20036;-74
2021/11/10 13:47:57;;;;;;;6.38;3.38;;;;;;;10.55;62.42;99456.94;5013002;28;20025;-74
2021/11/10 13:50:38;;;;;;;5.78;3.25;;;;;;;10.26;61.88;99462.28;5013169;28;20026;-74
2021/11/10 13:53:04;;;;;;;3.97;3.28;;;;;;;10.08;63.33;99468.41;5012536;28;20021;-74
2021/11/10 13:55:29;;;;;;;6.72;4.55;;;;;;;9.95;64.23;99457.22;5012972;28;20107;-74
2021/11/10 13:57:55;;;;;;;4.38;3.63;;;;;;;10.01;64.54;99461.53;5012790;28;20029;-74
2021/11/10 14:00:22;;;;;;;3.95;3.00;;;;;;;9.77;64.91;99465.94;5012642;28;20073;-74
2021/11/10 14:02:50;;;;;;;7.45;3.95;;;;;;;9.62;65.84;99457.34;5012683;28;20026;-74
2021/11/10 14:05:21;;;;;;;7.10;3.63;;;;;;;9.40;67.42;99462.59;5012561;28;20038;-74
2021/11/10 14:07:46;;;;;;;4.18;3.25;;;;;;;9.47;67.17;99464.28;5012863;28;20060;-74
2021/11/10 14:10:21;;;;;;;4.25;3.72;;;;;;;9.25;67.18;99458.31;5012705;28;20025;-74
2021/11/10 14:12:51;;;;;;;4.75;2.85;;;;;;;9.34;67.48;99457.44;5012419;28;20080;-74
2021/11/10 14:15:21;;;;;;;3.22;2.70;;;;;;;9.16;68.95;99453.16;5012353;28;20029;-74
2021/11/10 14:18:00;;;;;;;2.35;2.13;;;;;;;9.24;68.96;99451.44;5012374;28;20026;-74
2021/11/10 14:20:41;;;;;;;4.95;3.00;;;;;;;9.14;68.67;99448.88;4992677;28;20461;-74
2021/11/10 14:23:23;;;;;;;2.22;2.13;;;;;;;9.22;68.68;99449.69;5003315;28;20690;-74
2021/11/10 14:26:00;;;;;;;4.72;2.53;;;;;;;9.08;68.68;99448.84;5012233;28;20034;-74
2021/11/10 14:28:32;;;;;;;5.25;3.58;;;;;;;9.05;69.69;99446.28;5012382;28;20021;-74
2021/11/10 14:31:03;;;;;;;3.05;2.67;;;;;;;9.19;70.16;99444.56;5012158;28;20017;-74
2021/11/10 14:33:37;;;;;;;3.65;2.47;;;;;;;8.99;71.48;99445.44;5012075;28;20029;-75
2021/11/10 14:36:18;;;;;;;3.45;2.78;;;;;;;9.15;70.46;99451.44;5011501;28;20061;-74
2021/11/10 14:38:55;;;;;;;9.93;3.38;;;;;;;9.06;69.93;99450.59;5012182;28;20050;-74
2021/11/10 14:41:31;;;;;;;8.20;3.15;;;;;;;9.00;70.12;99452.31;5011988;28;20438;-74
2021/11/10 14:43:57;;;;;;;3.90;3.42;;;;;;;8.94;70.06;99447.13;5012242;28;20038;-74
2021/11/10 14:46:32;;;;;;;6.00;3.75;;;;;;;8.82;70.39;99457.50;5011824;28;20021;-72
2021/11/10 14:49:20;;;;;;;3.08;2.53;;;;;;;8.72;71.44;99460.94;5011853;28;20032;-72
2021/11/10 14:51:54;;;;;;;4.80;3.97;;;;;;;8.74;71.15;99454.03;5011859;28;20104;-72
2021/11/10 14:54:27;;;;;;;3.75;3.35;;;;;;;8.83;71.14;99464.38;5011130;28;20026;-72
2021/11/10 14:57:06;;;;;;;2.83;2.17;;;;;;;8.58;72.89;99462.66;5012021;28;20026;-73
2021/11/10 14:59:34;;;;;;;6.13;3.40;;;;;;;8.66;73.70;99461.81;5011948;28;20030;-72
2021/11/10 15:02:13;;;;;;;5.70;4.53;;;;;;;8.39;72.69;99460.03;5011645;28;20025;-72
2021/11/10 15:04:52;;;;;;;2.08;1.75;;;;;;;8.29;73.83;99450.53;5011989;28;20061;-72
2021/11/10 15:07:25;;;;;;;3.70;3.27;;;;;;;8.18;74.53;99444.47;5011790;28;20038;-72
2021/11/10 15:09:51;;;;;;;6.53;5.38;;;;;;;8.06;75.17;99441.84;5011737;28;20265;-72
2021/11/10 15:12:17;;;;;;;4.68;3.22;;;;;;;8.02;75.18;99437.53;5011748;28;20084;-72
2021/11/10 15:14:53;;;;;;;5.32;2.65;;;;;;;8.01;75.88;99443.56;5011653;28;20036;-72
2021/11/10 15:17:22;;;;;;;5.47;3.83;;;;;;;7.97;75.05;99464.19;5011578;28;20505;-72
2021/11/10 15:20:00;;;;;;;3.72;3.15;;;;;;;7.95;75.61;99459.88;5011530;28;20340;-72
2021/11/10 15:22:48;;;;;;;3.53;3.15;;;;;;;7.77;76.33;99470.97;5011449;28;20025;-72
2021/11/10 15:25:16;;;;;;;4.32;3.05;;;;;;;7.62;78.46;99482.09;5011068;28;20554;-72
2021/11/10 15:27:45;;;;;;;4.50;3.92;;;;;;;7.40;78.80;99486.28;5014321;28;20033;-72
2021/11/10 15:30:13;;;;;;;4.35;3.85;;;;;;;7.30;78.91;99481.94;5004756;28;20026;-72
2021/11/10 15:32:38;;;;;;;7.47;4.18;;;;;;;7.26;78.59;99487.91;5015070;28;20486;-72
2021/11/10 15:35:04;;;;;;;5.18;3.20;;;;;;;7.15;80.07;99484.38;5015151;28;20044;-72
2021/11/10 15:37:29;;;;;;;3.97;3.65;;;;;;;7.03;80.51;99485.16;5015258;28;20025;-72
2021/11/10 15:39:55;;;;;;;3.28;2.95;;;;;;;6.91;81.43;99493.66;5015065;28;20037;-72
2021/11/10 15:42:21;;;;;;;7.35;4.28;;;;;;;6.73;83.41;99493.50;5014886;28;20495;-72
2021/11/10 15:44:47;;;;;;;4.70;3.10;;;;;;;6.57;84.72;99494.19;5015225;28;20045;-72
2021/11/10 15:47:13;;;;;;;2.90;2.03;;;;;;;6.54;84.66;99489.03;5014780;28;20022;-72
2021/11/10 15:49:39;;;;;;;11.98;2.78;;;;;;;6.38;86.03;99499.19;5015089;28;20036;-72
2021/11/10 15:52:04;;;;;;;3.47;3.25;;;;;;;6.36;85.98;99508.56;5014710;28;20469;-72
2021/11/10 15:54:30;;;;;;;3.42;2.95;;;;;;;6.28;86.58;99507.63;5015032;28;20029;-72
2021/11/10 15:56:55;;;;;;;3.65;3.22;;;;;;;6.12;87.55;99510.88;5013767;28;20022;-72
2021/11/10 15:59:20;;;;;;;4.60;3.88;;;;;;;6.02;88.65;99515.06;5014582;28;20029;-72